createdAt,value
2022-10-24T00:03:18.784Z,21.30
2022-10-24T00:06:41.724Z,21.30
2022-10-24T00:10:04.792Z,21.20
2022-10-24T00:13:27.026Z,21.30
2022-10-24T00:16:49.254Z,21.30
2022-10-24T00:20:12.264Z,21.20
2022-10-24T00:23:34.816Z,21.20
2022-10-24T00:26:57.061Z,21.30
2022-10-24T00:30:19.236Z,21.20
2022-10-24T00:33:42.570Z,21.30
2022-10-24T00:37:04.760Z,21.30
2022-10-24T00:40:26.923Z,21.20
2022-10-24T00:43:49.177Z,21.20
2022-10-24T00:47:14.172Z,21.20
2022-10-24T00:50:36.307Z,21.20
2022-10-24T00:54:02.858Z,21.20
2022-10-24T00:57:35.472Z,21.20
2022-10-24T01:00:58.008Z,21.20
2022-10-24T01:04:20.208Z,21.20
2022-10-24T01:07:50.634Z,21.20
2022-10-24T01:11:36.447Z,21.20
2022-10-24T01:15:19.302Z,21.20
2022-10-24T01:18:47.339Z,21.20
2022-10-24T01:22:51.494Z,21.20
2022-10-24T01:26:28.552Z,21.20
2022-10-24T01:30:01.999Z,21.20
2022-10-24T01:33:32.542Z,21.20
2022-10-24T01:37:20.604Z,21.20
2022-10-24T01:40:53.608Z,21.20
2022-10-24T01:44:22.371Z,21.20
2022-10-24T01:47:50.574Z,21.20
2022-10-24T01:51:15.929Z,21.10
2022-10-24T01:54:40.020Z,21.10
2022-10-24T01:58:02.169Z,21.10
2022-10-24T02:01:25.862Z,21.10
2022-10-24T02:05:05.429Z,21.10
2022-10-24T02:08:35.541Z,21.10
2022-10-24T02:11:59.781Z,21.10
2022-10-24T02:15:27.061Z,21.10
2022-10-24T02:18:51.862Z,21.10
2022-10-24T02:22:33.882Z,21.10
2022-10-24T02:26:00.894Z,21.10
2022-10-24T02:29:38.247Z,21.10
2022-10-24T02:33:01.678Z,21.10
2022-10-24T02:36:28.901Z,21.10
2022-10-24T02:39:53.001Z,21.10
2022-10-24T02:43:17.571Z,21.10
2022-10-24T02:46:40.758Z,21.10
2022-10-24T02:50:03.017Z,21.10
2022-10-24T02:53:26.363Z,21.10
2022-10-24T02:56:53.177Z,21.00
2022-10-24T03:00:15.733Z,21.10
2022-10-24T03:03:38.413Z,21.10
2022-10-24T03:07:00.701Z,21.00
2022-10-24T03:10:22.842Z,21.10
2022-10-24T03:13:45.050Z,21.10
2022-10-24T03:17:07.214Z,21.00
2022-10-24T03:20:29.430Z,21.10
2022-10-24T03:23:51.617Z,21.00
2022-10-24T03:27:14.775Z,21.00
2022-10-24T03:30:36.943Z,21.00
2022-10-24T03:33:59.121Z,21.00
2022-10-24T03:37:21.353Z,21.00
2022-10-24T03:40:43.566Z,21.00
2022-10-24T03:44:05.734Z,21.00
2022-10-24T03:47:28.015Z,21.00
2022-10-24T03:50:50.136Z,21.00
2022-10-24T03:54:15.150Z,21.00
2022-10-24T03:57:37.426Z,21.00
2022-10-24T04:00:59.746Z,21.00
2022-10-24T04:04:22.206Z,21.00
2022-10-24T04:07:44.587Z,21.00
2022-10-24T04:11:07.650Z,21.00
2022-10-24T04:14:29.771Z,21.00
2022-10-24T04:17:52.002Z,21.00
2022-10-24T04:21:17.893Z,21.00
2022-10-24T04:24:43.097Z,21.00
2022-10-24T04:28:05.266Z,21.00
2022-10-24T04:31:27.581Z,21.00
2022-10-24T04:34:49.937Z,21.00
2022-10-24T04:38:12.076Z,21.00
2022-10-24T04:41:34.262Z,21.00
2022-10-24T04:44:56.477Z,21.00
2022-10-24T04:48:18.692Z,21.00
2022-10-24T04:51:40.883Z,21.00
2022-10-24T04:55:03.240Z,21.00
2022-10-24T04:58:25.495Z,21.00
2022-10-24T05:01:47.888Z,21.00
2022-10-24T05:05:10.314Z,21.00
2022-10-24T05:08:32.435Z,21.00
2022-10-24T05:11:56.470Z,21.00
2022-10-24T05:15:20.241Z,21.00
2022-10-24T05:18:42.410Z,21.00
2022-10-24T05:22:07.198Z,21.00
2022-10-24T05:25:32.341Z,21.00
2022-10-24T05:28:54.630Z,21.00
2022-10-24T05:32:16.888Z,21.00
2022-10-24T05:35:41.538Z,21.00
2022-10-24T05:39:04.006Z,21.00
2022-10-24T05:42:26.144Z,21.00
2022-10-24T05:49:16.407Z,21.00
2022-10-24T05:52:44.592Z,21.00
2022-10-24T05:56:09.893Z,21.00
2022-10-24T05:59:32.115Z,21.00
2022-10-24T06:02:54.297Z,21.00
2022-10-24T06:06:16.562Z,21.10
2022-10-24T06:09:40.557Z,21.10
2022-10-24T06:13:02.959Z,21.10
2022-10-24T06:16:27.535Z,21.10
2022-10-24T06:19:51.007Z,21.10
2022-10-24T06:23:13.391Z,21.20
2022-10-24T06:26:35.622Z,21.20
2022-10-24T06:29:57.967Z,21.20
2022-10-24T06:33:20.561Z,21.10
2022-10-24T06:36:42.740Z,21.20
2022-10-24T06:40:05.384Z,21.20
2022-10-24T06:43:27.504Z,21.10
2022-10-24T06:46:49.647Z,21.10
2022-10-24T06:50:11.834Z,21.10
2022-10-24T06:53:34.763Z,21.00
2022-10-24T06:56:57.025Z,21.00
2022-10-24T07:00:19.481Z,21.00
2022-10-24T07:03:42.312Z,21.00
2022-10-24T07:07:04.734Z,21.00
2022-10-24T07:10:26.875Z,21.00
2022-10-24T07:13:49.573Z,21.00
2022-10-24T07:17:11.702Z,21.00
2022-10-24T07:20:33.950Z,21.00
2022-10-24T07:23:57.034Z,21.00
2022-10-24T07:27:19.232Z,21.00
2022-10-24T07:30:44.592Z,20.90
2022-10-24T07:34:08.633Z,21.00
2022-10-24T07:37:31.288Z,21.00
2022-10-24T07:40:53.526Z,21.00
2022-10-24T07:44:15.651Z,21.00
2022-10-24T07:47:38.225Z,21.00
2022-10-24T07:51:00.513Z,21.20
2022-10-24T07:57:49.995Z,21.20
2022-10-24T08:01:13.807Z,21.10
2022-10-24T08:04:36.482Z,21.00
2022-10-24T08:08:12.000Z,21.00
2022-10-24T08:11:41.064Z,20.90
2022-10-24T08:15:03.864Z,20.90
2022-10-24T08:18:28.354Z,20.90
2022-10-24T08:21:52.885Z,20.90
2022-10-24T08:25:15.059Z,21.20
2022-10-24T08:28:38.163Z,22.70
2022-10-24T08:32:00.688Z,23.50
2022-10-24T08:35:22.843Z,22.70
2022-10-24T08:38:45.080Z,23.00
2022-10-24T08:42:11.916Z,25.30
2022-10-24T08:45:43.172Z,27.00
2022-10-24T08:49:18.865Z,28.10
2022-10-24T08:52:43.658Z,28.50
2022-10-24T08:56:06.555Z,28.70
2022-10-24T08:59:31.006Z,28.50
2022-10-24T09:03:26.577Z,27.40
2022-10-24T09:07:01.725Z,26.30
2022-10-24T09:10:32.822Z,24.90
2022-10-24T09:13:55.479Z,23.70
2022-10-24T09:17:44.069Z,23.00
2022-10-24T09:21:09.577Z,22.60
2022-10-24T09:24:57.975Z,22.30
2022-10-24T09:28:21.145Z,22.00
2022-10-24T09:31:43.431Z,21.90
2022-10-24T09:35:09.046Z,21.80
2022-10-24T09:38:37.569Z,21.70
2022-10-24T09:42:01.584Z,21.60
2022-10-24T09:45:44.542Z,21.70
2022-10-24T09:49:12.541Z,21.70
2022-10-24T09:52:34.733Z,21.70
2022-10-24T09:56:00.341Z,21.70
2022-10-24T09:59:48.769Z,21.70
2022-10-24T10:03:24.012Z,21.60
2022-10-24T10:06:49.689Z,21.50
2022-10-24T10:10:31.614Z,21.50
2022-10-24T10:13:55.646Z,21.50
2022-10-24T10:17:25.350Z,21.60
2022-10-24T10:20:59.361Z,21.60
2022-10-24T10:24:26.082Z,21.60
2022-10-24T10:27:50.954Z,21.60
2022-10-24T10:31:13.649Z,21.60
2022-10-24T10:34:40.285Z,21.60
2022-10-24T10:38:39.870Z,21.50
2022-10-24T10:42:14.550Z,21.50
2022-10-24T10:45:50.640Z,21.40
2022-10-24T10:49:18.967Z,21.40
2022-10-24T10:52:48.849Z,21.30
2022-10-24T10:56:30.941Z,21.20
2022-10-24T11:00:10.630Z,21.20
2022-10-24T11:03:40.108Z,21.20
2022-10-24T11:07:40.460Z,21.20
2022-10-24T11:11:06.746Z,21.20
2022-10-24T11:14:37.225Z,21.20
2022-10-24T11:18:09.058Z,21.10
2022-10-24T11:21:33.821Z,21.10
2022-10-24T11:25:09.404Z,21.00
2022-10-24T11:28:34.541Z,20.90
2022-10-24T11:31:57.499Z,21.10
2022-10-24T11:35:30.167Z,21.20
2022-10-24T11:39:02.216Z,21.20
2022-10-24T11:42:55.388Z,21.30
2022-10-24T11:46:26.432Z,21.30
2022-10-24T11:49:58.280Z,21.20
2022-10-24T11:53:31.162Z,21.20
2022-10-24T11:57:04.421Z,21.20
2022-10-24T12:00:58.424Z,21.30
2022-10-24T12:04:44.733Z,21.30
2022-10-24T12:08:26.468Z,21.30
2022-10-24T12:12:16.455Z,21.30
2022-10-24T12:16:16.671Z,21.40
2022-10-24T12:19:40.291Z,21.30
2022-10-24T12:23:03.515Z,21.30
2022-10-24T12:26:31.064Z,21.30
2022-10-24T12:30:04.125Z,21.40
2022-10-24T12:33:27.628Z,21.40
2022-10-24T12:37:11.874Z,21.40
2022-10-24T12:41:06.881Z,21.40
2022-10-24T12:44:34.916Z,21.50
2022-10-24T12:47:57.019Z,21.40
2022-10-24T12:51:45.419Z,21.50
2022-10-24T12:55:30.338Z,21.40
2022-10-24T12:59:02.689Z,21.50
2022-10-24T13:02:42.912Z,21.50
2022-10-24T13:06:17.058Z,21.40
2022-10-24T13:10:06.338Z,21.40
2022-10-24T13:14:08.779Z,21.40
2022-10-24T13:17:43.574Z,21.40
2022-10-24T13:21:18.519Z,21.40
2022-10-24T13:24:40.737Z,21.40
2022-10-24T13:28:24.097Z,21.40
2022-10-24T13:31:48.253Z,21.50
2022-10-24T13:35:18.406Z,21.50
2022-10-24T13:38:57.070Z,21.50
2022-10-24T13:42:35.043Z,21.50
2022-10-24T13:46:08.383Z,21.50
2022-10-24T13:49:39.864Z,21.50
2022-10-24T13:53:13.282Z,21.50
2022-10-24T13:56:40.578Z,21.50
2022-10-24T14:00:08.661Z,21.50
2022-10-24T14:03:34.623Z,21.50
2022-10-24T14:07:05.781Z,21.50
2022-10-24T14:10:29.278Z,21.50
2022-10-24T14:13:55.335Z,21.50
2022-10-24T14:17:26.279Z,21.50
2022-10-24T14:20:57.474Z,21.50
2022-10-24T14:24:22.308Z,21.50
2022-10-24T14:27:44.751Z,21.50
2022-10-24T14:31:18.193Z,21.50
2022-10-24T14:34:40.831Z,21.50
2022-10-24T14:38:07.424Z,21.40
2022-10-24T14:41:39.720Z,21.50
2022-10-24T14:45:01.930Z,21.50
2022-10-24T14:48:24.209Z,21.50
2022-10-24T14:51:48.591Z,21.50
2022-10-24T14:55:13.686Z,21.50
2022-10-24T14:58:35.801Z,21.50
2022-10-24T15:02:01.697Z,21.50
2022-10-24T15:05:31.039Z,21.50
2022-10-24T15:09:17.807Z,21.50
2022-10-24T15:12:41.192Z,21.50
2022-10-24T15:16:04.362Z,21.50
2022-10-24T15:19:26.518Z,21.50
2022-10-24T15:22:55.552Z,21.50
2022-10-24T15:26:49.836Z,21.50
2022-10-24T15:30:16.224Z,21.50
2022-10-24T15:37:07.660Z,21.50
2022-10-24T15:40:33.202Z,21.50
2022-10-24T15:43:56.376Z,21.50
2022-10-24T15:47:18.728Z,21.50
2022-10-24T15:50:46.016Z,21.50
2022-10-24T15:54:12.112Z,21.50
2022-10-24T15:57:34.222Z,21.40
2022-10-24T16:00:56.558Z,21.40
2022-10-24T16:04:20.110Z,21.40
2022-10-24T16:07:42.376Z,21.40
2022-10-24T16:11:07.646Z,21.40
2022-10-24T16:14:32.099Z,21.40
2022-10-24T16:17:54.519Z,21.40
2022-10-24T16:21:20.124Z,21.40
2022-10-24T16:24:42.212Z,21.40
2022-10-24T16:28:07.308Z,21.40
2022-10-24T16:31:29.418Z,21.40
2022-10-24T16:34:52.457Z,21.40
2022-10-24T16:38:14.970Z,21.40
2022-10-24T16:41:37.170Z,21.40
2022-10-24T16:44:59.438Z,21.40
2022-10-24T16:48:21.744Z,21.30
2022-10-24T16:51:45.270Z,21.30
2022-10-24T16:55:07.927Z,21.30
2022-10-24T16:58:30.532Z,21.30
2022-10-24T17:01:52.831Z,21.30
2022-10-24T17:05:15.625Z,21.20
2022-10-24T17:08:37.809Z,21.20
2022-10-24T17:12:00.190Z,21.20
2022-10-24T17:15:22.728Z,21.20
2022-10-24T17:18:51.313Z,21.20
2022-10-24T17:22:27.876Z,21.10
2022-10-24T17:25:50.280Z,21.10
2022-10-24T17:29:17.708Z,21.20
2022-10-24T17:32:39.983Z,21.10
2022-10-24T17:36:04.733Z,21.10
2022-10-24T17:40:05.943Z,21.10
2022-10-24T17:43:28.533Z,21.10
2022-10-24T17:46:54.646Z,21.10
2022-10-24T17:50:20.576Z,21.10
2022-10-24T17:53:42.751Z,21.20
2022-10-24T17:57:07.492Z,21.20
2022-10-24T18:00:30.346Z,21.30
2022-10-24T18:03:52.587Z,21.30
2022-10-24T18:07:15.037Z,21.30
2022-10-24T18:10:38.507Z,21.30
2022-10-24T18:14:00.656Z,21.30
2022-10-24T18:17:22.760Z,21.30
2022-10-24T18:20:44.912Z,21.30
2022-10-24T18:24:07.993Z,21.30
2022-10-24T18:27:30.243Z,21.30
2022-10-24T18:30:52.483Z,21.30
2022-10-24T18:34:14.680Z,21.30
2022-10-24T18:37:37.122Z,21.30
2022-10-24T18:40:59.571Z,21.30
2022-10-24T18:44:26.466Z,21.30
2022-10-24T18:47:49.567Z,21.30
2022-10-24T18:51:42.558Z,21.30
2022-10-24T18:55:18.741Z,21.30
2022-10-24T18:58:41.681Z,21.40
2022-10-24T19:02:09.546Z,21.30
2022-10-24T19:05:56.983Z,21.30
2022-10-24T19:09:21.321Z,21.30
2022-10-24T19:12:43.925Z,21.30
2022-10-24T19:16:06.661Z,21.40
2022-10-24T19:19:34.447Z,21.40
2022-10-24T19:22:58.561Z,21.30
2022-10-24T19:26:20.708Z,21.30
2022-10-24T19:29:42.882Z,21.30
2022-10-24T19:33:05.083Z,21.30
2022-10-24T19:39:54.313Z,21.20
2022-10-24T19:43:16.418Z,21.20
2022-10-24T19:46:38.597Z,21.20
2022-10-24T19:50:00.879Z,21.20
2022-10-24T19:53:23.005Z,21.20
2022-10-24T19:56:45.985Z,21.30
2022-10-24T20:00:08.849Z,21.30
2022-10-24T20:03:43.016Z,21.30
2022-10-24T20:07:08.711Z,21.30
2022-10-24T20:10:30.936Z,21.20
2022-10-24T20:13:53.120Z,21.20
2022-10-24T20:17:15.233Z,21.30
2022-10-24T20:20:37.441Z,21.30
2022-10-24T20:23:59.850Z,21.30
2022-10-24T20:27:24.529Z,21.30
2022-10-24T20:30:47.069Z,21.30
2022-10-24T20:34:12.358Z,21.20
2022-10-24T20:37:34.521Z,21.30
2022-10-24T20:41:02.334Z,21.30
2022-10-24T20:44:25.045Z,21.30
2022-10-24T20:47:47.502Z,21.30
2022-10-24T20:51:16.276Z,21.20
2022-10-24T20:54:38.400Z,21.30
2022-10-24T20:58:00.541Z,21.20
2022-10-24T21:01:26.169Z,21.20
2022-10-24T21:04:48.433Z,21.20
2022-10-24T21:08:10.596Z,21.30
2022-10-24T21:11:34.067Z,21.30
2022-10-24T21:14:56.273Z,21.30
2022-10-24T21:18:18.380Z,21.30
2022-10-24T21:21:40.977Z,21.20
2022-10-24T21:25:03.201Z,21.20
2022-10-24T21:28:27.553Z,21.20
2022-10-24T21:31:51.153Z,21.20
2022-10-24T21:35:13.409Z,21.20
2022-10-24T21:38:35.591Z,21.20
2022-10-24T21:41:57.733Z,21.20
2022-10-24T21:45:19.860Z,21.20
2022-10-24T21:48:43.445Z,21.20
2022-10-24T21:52:05.552Z,21.20
2022-10-24T21:55:27.699Z,21.20
2022-10-24T21:58:52.976Z,21.20
2022-10-24T22:02:15.465Z,21.20
2022-10-24T22:05:37.693Z,21.20
2022-10-24T22:09:00.081Z,21.20
2022-10-24T22:12:22.183Z,21.20
2022-10-24T22:19:12.984Z,21.20
2022-10-24T22:22:35.128Z,21.20
2022-10-24T22:25:58.141Z,21.20
2022-10-24T22:29:23.113Z,21.20
2022-10-24T22:32:45.679Z,21.10
2022-10-24T22:36:31.202Z,21.10
2022-10-24T22:39:53.595Z,21.20
2022-10-24T22:43:16.072Z,21.10
2022-10-24T22:46:55.549Z,21.10
2022-10-24T22:50:38.636Z,21.10
2022-10-24T22:54:01.118Z,21.10
2022-10-24T22:57:23.687Z,21.10
2022-10-24T23:00:49.707Z,21.10
2022-10-24T23:04:36.046Z,21.10
2022-10-24T23:08:06.155Z,21.10
2022-10-24T23:11:28.557Z,21.10
2022-10-24T23:14:51.508Z,21.10
2022-10-24T23:18:16.309Z,21.10
2022-10-24T23:21:46.356Z,21.10
2022-10-24T23:25:09.777Z,21.10
2022-10-24T23:28:49.233Z,21.10
2022-10-24T23:32:21.769Z,21.10
2022-10-24T23:35:44.533Z,21.10
2022-10-24T23:39:08.857Z,21.10
2022-10-24T23:42:31.258Z,21.10
2022-10-24T23:46:11.444Z,21.10
2022-10-24T23:49:46.540Z,21.10
2022-10-24T23:53:28.010Z,21.10
2022-10-24T23:56:50.357Z,21.10
